Time;durP1;ratioP1;P1;durP2;ratioP2;P2;SDS_P1;SDS_P2;PMS_P1;PMS_P2;Temp;Humidity;BMP_temperature;BMP_pressure;BME280_temperature;BME280_humidity;BME280_pressure;Samples;Min_cycle;Max_cycle;Signal;HPM_P1;HPM_P2
2021/07/30 00:01:24;;;;;;;3.55;1.95;;;;;;;19.46;32.74;100721.63;3575745;40;20573;-74
2021/07/30 00:03:52;;;;;;;3.50;2.00;;;;;;;19.44;33.39;100726.50;3574504;40;20918;-75
2021/07/30 00:06:27;;;;;;;4.07;2.00;;;;;;;19.43;33.25;100727.56;3576503;40;20129;-74
2021/07/30 00:08:56;;;;;;;3.70;1.90;;;;;;;19.44;33.12;100718.16;3573782;40;20142;-74
2021/07/30 00:11:24;;;;;;;3.70;1.70;;;;;;;19.42;33.48;100720.31;3577233;40;20142;-75
2021/07/30 00:13:52;;;;;;;3.78;1.90;;;;;;;19.40;33.55;100714.94;3573582;40;20054;-75
2021/07/30 00:16:20;;;;;;;3.90;1.80;;;;;;;19.40;33.77;100712.16;3576697;40;20045;-75
2021/07/30 00:18:48;;;;;;;3.28;1.90;;;;;;;19.39;33.90;100713.22;3572209;40;20052;-74
2021/07/30 00:21:16;;;;;;;4.50;1.80;;;;;;;19.38;33.42;100717.03;3569585;40;20065;-75
2021/07/30 00:23:44;;;;;;;3.72;2.03;;;;;;;19.38;33.51;100716.19;3571359;40;20163;-75
2021/07/30 00:26:14;;;;;;;4.25;1.98;;;;;;;19.38;33.84;100716.19;3576449;40;20089;-75
2021/07/30 00:28:41;;;;;;;4.22;1.92;;;;;;;19.37;33.79;100714.47;3572386;40;20317;-75
2021/07/30 00:31:09;;;;;;;5.03;1.80;;;;;;;19.35;33.86;100719.38;3569314;40;20057;-75
2021/07/30 00:33:38;;;;;;;4.03;2.10;;;;;;;19.34;33.39;100724.03;3574593;40;20040;-74
2021/07/30 00:36:06;;;;;;;3.72;1.77;;;;;;;19.34;33.39;100715.72;3573685;40;20084;-75
2021/07/30 00:38:34;;;;;;;4.85;2.10;;;;;;;19.34;34.01;100721.28;3584054;40;20057;-75
2021/07/30 00:41:02;;;;;;;3.10;1.65;;;;;;;19.33;33.79;100721.47;3570700;40;20403;-75
2021/07/30 00:43:31;;;;;;;3.88;1.80;;;;;;;19.35;33.71;100720.19;3576660;40;20122;-75
2021/07/30 00:46:00;;;;;;;5.43;1.92;;;;;;;19.34;34.07;100717.63;3573269;40;20100;-75
2021/07/30 00:48:30;;;;;;;3.42;1.80;;;;;;;19.33;33.71;100719.56;3576025;40;20037;-75
2021/07/30 00:50:58;;;;;;;4.47;1.92;;;;;;;19.33;34.41;100718.69;3573389;40;20052;-74
2021/07/30 00:53:27;;;;;;;3.65;1.80;;;;;;;19.30;34.29;100711.59;3576336;39;20063;-75
2021/07/30 00:55:57;;;;;;;4.15;2.10;;;;;;;19.30;34.43;100713.50;3574493;40;20424;-75
2021/07/30 00:58:26;;;;;;;5.63;1.90;;;;;;;19.29;34.27;100712.66;3577335;39;20473;-75
2021/07/30 01:00:56;;;;;;;3.63;1.73;;;;;;;19.33;34.02;100715.91;3573404;40;20049;-75
2021/07/30 01:03:26;;;;;;;3.55;1.65;;;;;;;19.30;34.31;100716.28;3572852;40;20033;-75
2021/07/30 01:05:55;;;;;;;3.75;1.80;;;;;;;19.29;34.54;100715.44;3576567;40;20350;-75
2021/07/30 01:08:23;;;;;;;3.33;1.90;;;;;;;19.29;34.68;100707.09;3575685;40;20041;-75
2021/07/30 01:10:51;;;;;;;4.78;1.80;;;;;;;19.30;34.80;100707.97;3574634;40;20059;-75
2021/07/30 01:13:19;;;;;;;4.40;1.90;;;;;;;19.30;34.72;100702.41;3574541;40;20078;-75
2021/07/30 01:15:47;;;;;;;3.30;1.80;;;;;;;19.29;34.53;100704.34;3576286;40;20123;-75
2021/07/30 01:18:16;;;;;;;4.45;2.60;;;;;;;19.32;34.33;100701.19;3579238;40;20041;-75
2021/07/30 01:20:45;;;;;;;4.30;1.88;;;;;;;19.31;34.91;100696.69;3574855;40;20061;-75
2021/07/30 01:23:14;;;;;;;4.80;1.80;;;;;;;19.31;34.44;100705.00;3576032;40;20036;-75
2021/07/30 01:25:42;;;;;;;2.72;1.70;;;;;;;19.29;35.02;100701.56;3575605;40;20065;-75
2021/07/30 01:28:10;;;;;;;3.95;1.90;;;;;;;19.28;34.93;100696.19;3576431;40;20057;-74
2021/07/30 01:30:41;;;;;;;3.28;1.83;;;;;;;19.31;34.95;100701.38;3572723;40;20073;-75
2021/07/30 01:33:09;;;;;;;3.55;1.60;;;;;;;19.29;35.27;100695.16;3573829;40;20118;-75
2021/07/30 01:35:37;;;;;;;3.33;2.10;;;;;;;19.28;34.77;100693.44;3575583;40;20136;-75
2021/07/30 01:38:05;;;;;;;4.88;2.00;;;;;;;19.29;34.78;100697.94;3575853;39;20045;-74
2021/07/30 01:40:34;;;;;;;4.85;2.05;;;;;;;19.30;34.68;100697.72;3573687;40;20057;-75
2021/07/30 01:43:02;;;;;;;4.00;1.80;;;;;;;19.28;35.07;100698.97;3568230;40;20330;-75
2021/07/30 01:45:30;;;;;;;5.07;2.00;;;;;;;19.28;34.91;100698.97;3577244;40;20130;-75
2021/07/30 01:47:58;;;;;;;4.07;1.85;;;;;;;19.28;35.34;100701.75;3575624;40;20057;-74
2021/07/30 01:50:26;;;;;;;4.72;2.10;;;;;;;19.27;35.28;100698.09;3574458;40;20049;-75
2021/07/30 01:52:54;;;;;;;3.65;1.77;;;;;;;19.27;34.81;100697.25;3572680;40;20115;-75
2021/07/30 01:55:23;;;;;;;3.92;1.80;;;;;;;19.27;34.86;100697.25;3577948;40;20063;-75
2021/07/30 01:57:52;;;;;;;5.10;2.00;;;;;;;19.27;35.34;100687.03;3573957;40;20150;-74
2021/07/30 02:00:20;;;;;;;3.58;1.60;;;;;;;19.26;35.48;100690.00;3575058;40;20041;-75
2021/07/30 02:02:48;;;;;;;4.00;2.47;;;;;;;19.25;35.35;100683.59;3567779;40;20045;-75
2021/07/30 02:05:16;;;;;;;4.95;2.13;;;;;;;19.23;35.01;100685.69;3576662;40;20338;-75
2021/07/30 02:07:44;;;;;;;4.95;2.00;;;;;;;19.24;35.21;100687.44;3575506;40;20045;-75
2021/07/30 02:10:12;;;;;;;3.88;2.00;;;;;;;19.23;35.64;100682.94;3574306;40;20088;-75
2021/07/30 02:15:23;;;;;;;3.00;2.03;;;;;;;19.19;35.42;100684.34;3575561;40;20432;-75
2021/07/30 02:17:51;;;;;;;3.55;1.98;;;;;;;19.16;35.40;100671.75;3574941;40;20123;-75
2021/07/30 02:20:19;;;;;;;2.33;1.63;;;;;;;19.15;35.97;100683.03;3575739;40;20142;-76
2021/07/30 02:22:47;;;;;;;2.75;1.80;;;;;;;19.14;35.77;100679.41;3574509;40;20045;-75
2021/07/30 02:25:16;;;;;;;4.75;1.90;;;;;;;19.12;35.42;100670.41;3576379;40;20095;-75
2021/07/30 02:27:44;;;;;;;3.10;1.70;;;;;;;19.12;36.23;100672.31;3570230;40;20049;-75
2021/07/30 02:30:12;;;;;;;3.67;2.00;;;;;;;19.11;35.71;100674.22;3573839;40;20061;-75
2021/07/30 02:32:42;;;;;;;2.90;1.52;;;;;;;19.11;35.95;100670.59;3573692;40;20143;-75
2021/07/30 02:35:11;;;;;;;3.80;1.88;;;;;;;19.09;36.19;100669.94;3574934;40;20053;-75
2021/07/30 02:37:39;;;;;;;3.70;1.92;;;;;;;19.07;35.88;100672.03;3575166;40;20041;-75
2021/07/30 02:40:08;;;;;;;3.83;2.05;;;;;;;19.06;36.27;100668.41;3576347;40;20146;-76
2021/07/30 02:42:35;;;;;;;2.40;1.65;;;;;;;19.04;35.87;100670.50;3575849;40;20033;-74
2021/07/30 02:45:04;;;;;;;3.80;1.88;;;;;;;19.02;36.22;100663.47;3569637;40;20065;-75
2021/07/30 02:47:32;;;;;;;4.18;2.30;;;;;;;18.99;36.22;100658.28;3575429;40;20049;-75
2021/07/30 02:50:01;;;;;;;3.60;1.90;;;;;;;18.97;35.80;100664.03;3573890;40;20045;-75
2021/07/30 02:52:30;;;;;;;5.75;2.10;;;;;;;18.93;36.43;100659.06;3571693;39;20045;-74
2021/07/30 02:54:58;;;;;;;4.03;2.15;;;;;;;18.90;36.62;100667.75;3574856;40;20049;-74
2021/07/30 02:57:26;;;;;;;4.53;2.00;;;;;;;18.86;36.31;100664.50;3571294;40;20102;-75
2021/07/30 02:59:54;;;;;;;4.63;2.15;;;;;;;18.83;36.67;100670.44;3576606;40;20060;-75
2021/07/30 03:02:22;;;;;;;4.50;1.83;;;;;;;18.79;36.36;100656.09;3576221;40;20445;-75
2021/07/30 03:04:50;;;;;;;5.28;2.10;;;;;;;18.76;36.77;100658.38;3573181;40;20053;-75
2021/07/30 03:07:19;;;;;;;3.70;2.10;;;;;;;18.75;36.34;100654.72;3575648;40;20577;-75
2021/07/30 03:09:47;;;;;;;3.92;2.10;;;;;;;18.71;36.75;100661.69;3574380;40;20437;-75
2021/07/30 03:12:15;;;;;;;3.65;1.95;;;;;;;18.68;36.41;100662.09;3571391;40;20150;-75
2021/07/30 03:14:43;;;;;;;3.63;2.00;;;;;;;18.67;37.02;100665.03;3575189;40;20048;-75
2021/07/30 03:17:11;;;;;;;4.63;2.17;;;;;;;18.62;36.75;100662.81;3572492;40;20368;-75
2021/07/30 03:19:39;;;;;;;3.80;2.08;;;;;;;18.61;36.98;100657.47;3586340;40;20135;-75
2021/07/30 03:22:07;;;;;;;4.10;2.10;;;;;;;18.58;36.93;100650.41;3573317;40;20056;-75
2021/07/30 03:24:36;;;;;;;4.68;2.22;;;;;;;18.57;37.02;100653.38;3576389;40;20438;-75
2021/07/30 03:27:05;;;;;;;4.60;2.22;;;;;;;18.53;36.73;100650.09;3573834;40;20065;-75
2021/07/30 03:29:33;;;;;;;4.80;2.25;;;;;;;18.48;36.82;100641.53;3572036;40;20048;-75
2021/07/30 03:32:01;;;;;;;3.58;2.22;;;;;;;18.46;37.23;100643.59;3577223;40;20097;-75
2021/07/30 03:34:32;;;;;;;3.45;2.10;;;;;;;18.42;37.20;100640.38;3573510;40;20068;-75
2021/07/30 03:37:01;;;;;;;3.97;2.28;;;;;;;18.40;37.02;100647.16;3577387;40;20030;-75
2021/07/30 03:39:29;;;;;;;3.67;2.22;;;;;;;18.37;36.90;100645.59;3578247;40;20060;-74
2021/07/30 03:41:58;;;;;;;4.53;2.28;;;;;;;18.37;37.34;100648.38;3573972;40;20049;-75
2021/07/30 03:44:26;;;;;;;3.78;2.30;;;;;;;18.32;37.51;100648.09;3576798;40;20130;-74
2021/07/30 03:46:54;;;;;;;4.40;2.17;;;;;;;18.30;37.41;100636.34;3574244;40;20060;-75
2021/07/30 03:49:22;;;;;;;3.75;2.28;;;;;;;18.28;37.28;100640.31;3576551;40;20294;-75
2021/07/30 03:51:50;;;;;;;5.07;2.40;;;;;;;18.25;37.54;100641.59;3577696;40;20180;-75
2021/07/30 03:54:18;;;;;;;4.28;2.15;;;;;;;18.23;37.25;100643.69;3573433;40;20168;-74
2021/07/30 03:56:46;;;;;;;4.43;2.47;;;;;;;18.21;37.61;100644.91;3574363;40;20309;-74
2021/07/30 03:59:16;;;;;;;4.32;2.28;;;;;;;18.20;37.75;100632.09;3574252;40;20053;-74
2021/07/30 04:01:47;;;;;;;5.25;2.10;;;;;;;18.16;37.78;100636.31;3576277;40;20065;-75
2021/07/30 04:04:15;;;;;;;4.97;2.20;;;;;;;18.14;37.49;100630.09;3575887;40;20313;-75
2021/07/30 04:06:44;;;;;;;4.70;2.05;;;;;;;18.12;37.45;100637.72;3570445;40;20057;-75
2021/07/30 04:09:13;;;;;;;3.67;2.13;;;;;;;18.10;37.79;100642.59;3570029;40;20430;-74
2021/07/30 04:11:42;;;;;;;4.03;2.08;;;;;;;18.07;37.68;100649.38;3575476;40;20052;-75
2021/07/30 04:14:11;;;;;;;3.50;1.95;;;;;;;18.04;37.30;100639.50;3574073;40;20053;-75
2021/07/30 04:16:41;;;;;;;4.35;2.10;;;;;;;18.04;37.87;100639.50;3574547;40;20130;-74
2021/07/30 04:19:09;;;;;;;3.92;2.40;;;;;;;17.99;37.36;100630.03;3574403;40;20049;-75
2021/07/30 04:21:39;;;;;;;3.00;1.98;;;;;;;17.98;38.01;100637.47;3576278;40;20044;-75
2021/07/30 04:24:07;;;;;;;3.75;2.00;;;;;;;17.94;37.83;100638.91;3576667;40;20041;-75
2021/07/30 04:26:35;;;;;;;3.50;1.95;;;;;;;17.93;37.80;100639.94;3576494;40;20055;-74
2021/07/30 04:29:03;;;;;;;4.93;2.50;;;;;;;17.91;37.74;100636.50;3575813;40;20048;-74
2021/07/30 04:31:31;;;;;;;5.82;2.30;;;;;;;17.89;37.47;100641.34;3573285;40;20394;-74
2021/07/30 04:34:00;;;;;;;4.40;2.25;;;;;;;17.91;38.15;100638.41;3575147;40;20053;-74
2021/07/30 04:36:28;;;;;;;4.30;2.40;;;;;;;17.90;38.36;100644.97;3570610;40;20049;-74
2021/07/30 04:38:56;;;;;;;4.03;2.35;;;;;;;17.88;37.76;100630.47;3576280;40;20040;-74
2021/07/30 04:41:24;;;;;;;6.03;2.45;;;;;;;17.88;38.30;100630.47;3573910;40;20061;-75
2021/07/30 04:43:52;;;;;;;4.20;2.30;;;;;;;17.87;38.17;100626.81;3576184;40;20045;-74
2021/07/30 04:46:20;;;;;;;4.40;2.55;;;;;;;17.86;38.24;100636.19;3576606;40;20060;-74
2021/07/30 04:48:48;;;;;;;5.30;2.17;;;;;;;17.86;37.77;100638.09;3576544;39;20167;-74
2021/07/30 04:51:18;;;;;;;4.22;2.10;;;;;;;17.86;38.46;100640.88;3573549;40;20053;-74
2021/07/30 04:53:49;;;;;;;5.15;2.42;;;;;;;17.84;37.96;100640.19;3571578;40;20041;-75
2021/07/30 04:56:19;;;;;;;3.35;2.10;;;;;;;17.83;38.42;100630.16;3574103;40;20079;-74
2021/07/30 04:58:51;;;;;;;4.55;2.42;;;;;;;17.83;38.68;100638.47;3576516;40;20115;-74
2021/07/30 05:01:19;;;;;;;3.63;2.28;;;;;;;17.82;38.59;100639.50;3574541;40;20119;-74
2021/07/30 05:03:48;;;;;;;4.78;2.55;;;;;;;17.82;38.03;100637.59;3577798;40;20053;-74
2021/07/30 05:06:16;;;;;;;3.90;2.38;;;;;;;17.82;38.73;100632.06;3577659;40;20060;-74
2021/07/30 05:08:45;;;;;;;4.47;2.40;;;;;;;17.84;38.33;100626.34;3576369;40;20059;-74
2021/07/30 05:11:14;;;;;;;4.60;2.50;;;;;;;17.82;38.93;100625.69;3572608;40;20053;-74
2021/07/30 05:13:43;;;;;;;3.58;2.30;;;;;;;17.85;38.45;100622.53;3576044;40;20037;-74
2021/07/30 05:16:13;;;;;;;3.58;2.38;;;;;;;17.84;38.42;100618.91;3577003;40;20044;-74
2021/07/30 05:18:42;;;;;;;3.83;2.08;;;;;;;17.85;39.10;100620.66;3575316;40;20037;-74
2021/07/30 05:21:12;;;;;;;4.32;2.42;;;;;;;17.88;39.20;100620.25;3576508;40;20129;-74
2021/07/30 05:23:41;;;;;;;5.30;2.33;;;;;;;17.90;38.72;100620.06;3574019;40;20415;-75
2021/07/30 05:26:11;;;;;;;4.40;2.42;;;;;;;17.95;39.44;100607.38;3574828;40;20061;-74
2021/07/30 05:28:39;;;;;;;3.70;1.88;;;;;;;17.97;38.88;100613.59;3574737;40;20459;-74
2021/07/30 05:31:06;;;;;;;3.92;2.40;;;;;;;18.03;38.95;100606.47;3572907;40;20377;-74
2021/07/30 05:33:36;;;;;;;3.70;2.40;;;;;;;18.10;39.10;100614.91;3571044;40;20041;-74
2021/07/30 05:36:04;;;;;;;4.32;2.53;;;;;;;18.15;38.97;100609.66;3574124;40;20140;-74
2021/07/30 05:38:32;;;;;;;4.00;2.25;;;;;;;18.20;39.36;100602.50;3568331;40;20049;-75
2021/07/30 05:40:59;;;;;;;4.03;2.15;;;;;;;18.26;38.88;100606.44;3583703;40;20045;-74
2021/07/30 05:43:29;;;;;;;3.83;2.35;;;;;;;18.33;39.27;100608.28;3573210;40;20041;-76
2021/07/30 05:45:56;;;;;;;5.22;2.40;;;;;;;18.37;38.67;100604.06;3573560;40;20134;-74
2021/07/30 05:48:25;;;;;;;4.85;2.33;;;;;;;18.43;39.07;100602.47;3574189;40;20040;-75
2021/07/30 05:50:52;;;;;;;4.32;2.45;;;;;;;18.49;39.23;100604.47;3575022;40;20061;-74
2021/07/30 05:53:20;;;;;;;4.05;2.30;;;;;;;18.56;38.65;100601.78;3576065;40;20390;-74
2021/07/30 05:55:48;;;;;;;4.82;2.85;;;;;;;18.61;39.23;100593.75;3572981;40;20400;-74
2021/07/30 05:58:16;;;;;;;5.13;2.70;;;;;;;18.69;38.51;100607.53;3574043;40;20033;-74
2021/07/30 06:00:45;;;;;;;5.18;2.30;;;;;;;18.76;38.46;100603.81;3576035;40;20061;-74
2021/07/30 06:03:14;;;;;;;5.53;2.38;;;;;;;18.80;38.44;100596.84;3576344;40;20390;-74
2021/07/30 06:05:42;;;;;;;4.75;2.55;;;;;;;18.86;38.84;100595.19;3577878;40;20052;-77
2021/07/30 06:08:09;;;;;;;5.88;2.50;;;;;;;18.91;38.83;100591.88;3576989;40;20041;-74
2021/07/30 06:10:38;;;;;;;4.55;2.42;;;;;;;18.96;38.45;100598.53;3575483;40;20129;-73
2021/07/30 06:13:06;;;;;;;3.90;2.50;;;;;;;19.00;38.67;100588.78;3574438;40;20041;-73
2021/07/30 06:15:35;;;;;;;4.55;2.38;;;;;;;19.06;38.40;100582.47;3579794;40;20065;-72
2021/07/30 06:18:05;;;;;;;4.55;2.67;;;;;;;19.13;38.30;100580.63;3571459;40;20037;-72
2021/07/30 06:20:33;;;;;;;5.32;2.72;;;;;;;19.17;38.65;100579.19;3575270;40;20048;-72
2021/07/30 06:23:01;;;;;;;4.30;2.38;;;;;;;19.24;38.32;100592.28;3572435;40;20487;-72
2021/07/30 06:25:29;;;;;;;5.03;2.47;;;;;;;19.30;38.36;100597.88;3575351;40;20424;-72
2021/07/30 06:27:58;;;;;;;4.50;2.42;;;;;;;19.39;38.17;100584.75;3575373;40;20402;-71
2021/07/30 06:30:26;;;;;;;5.05;2.53;;;;;;;19.46;38.74;100597.66;3568452;40;20053;-72
2021/07/30 06:32:54;;;;;;;4.07;2.42;;;;;;;19.55;38.59;100584.53;3571999;40;20386;-72
2021/07/30 06:35:25;;;;;;;3.75;2.17;;;;;;;19.67;38.19;100587.66;3574271;40;20077;-71
2021/07/30 06:37:54;;;;;;;5.78;2.70;;;;;;;19.76;38.51;100592.03;3573395;40;20040;-72
2021/07/30 06:40:22;;;;;;;4.65;2.40;;;;;;;19.86;38.17;100581.41;3572009;40;20052;-72
2021/07/30 06:42:50;;;;;;;4.63;2.60;;;;;;;19.98;38.11;100592.84;3576700;39;20041;-72
2021/07/30 06:45:18;;;;;;;5.20;2.60;;;;;;;20.10;38.13;100589.31;3574807;40;20048;-71
2021/07/30 06:47:47;;;;;;;5.53;2.55;;;;;;;20.20;37.90;100592.59;3571593;40;20045;-71
2021/07/30 06:50:15;;;;;;;4.20;2.38;;;;;;;20.33;37.92;100588.25;3573959;40;20053;-72
2021/07/30 06:52:44;;;;;;;3.97;2.25;;;;;;;20.46;37.48;100591.09;3577659;40;20059;-71
2021/07/30 06:55:13;;;;;;;4.13;2.22;;;;;;;20.55;37.64;100592.66;3571195;40;20084;-71
2021/07/30 06:57:41;;;;;;;4.18;2.58;;;;;;;20.65;37.51;100582.91;3572422;40;20360;-71
2021/07/30 07:00:11;;;;;;;4.55;2.25;;;;;;;20.77;36.78;100585.09;3574700;40;20048;-72
2021/07/30 07:02:40;;;;;;;5.75;2.40;;;;;;;20.86;36.66;100589.41;3575067;39;20310;-72
2021/07/30 07:05:10;;;;;;;4.90;2.53;;;;;;;20.97;36.42;100584.16;3571083;40;20050;-72
2021/07/30 07:07:38;;;;;;;3.90;2.22;;;;;;;21.04;36.47;100578.63;3572501;40;20040;-72
2021/07/30 07:10:08;;;;;;;4.05;2.50;;;;;;;21.14;36.38;100586.56;3576415;40;20052;-72
2021/07/30 07:12:37;;;;;;;3.75;2.25;;;;;;;21.21;36.10;100588.31;3569287;40;20041;-71
2021/07/30 07:15:06;;;;;;;4.53;2.60;;;;;;;21.28;36.58;100589.19;3570817;40;20049;-71
2021/07/30 07:17:35;;;;;;;4.88;2.60;;;;;;;21.36;36.46;100586.22;3579155;39;20211;-72
2021/07/30 07:20:03;;;;;;;4.40;2.20;;;;;;;21.45;36.14;100586.88;3575161;40;20034;-71
2021/07/30 07:22:32;;;;;;;4.78;2.30;;;;;;;21.53;36.12;100577.47;3572479;40;20053;-71
2021/07/30 07:25:00;;;;;;;3.25;1.98;;;;;;;21.62;36.06;100571.53;3576331;40;20061;-71
2021/07/30 07:27:30;;;;;;;3.80;2.15;;;;;;;21.73;35.83;100572.84;3574188;40;20073;-71
2021/07/30 07:29:58;;;;;;;4.20;2.00;;;;;;;21.80;35.68;100577.34;3576811;40;20044;-71
2021/07/30 07:32:26;;;;;;;4.80;2.10;;;;;;;21.90;35.90;100578.84;3569286;40;20045;-72
2021/07/30 07:34:55;;;;;;;4.03;2.10;;;;;;;22.01;35.69;100575.41;3573716;40;20127;-72
2021/07/30 07:37:23;;;;;;;4.70;2.08;;;;;;;22.09;35.27;100573.25;3568543;40;20039;-72
2021/07/30 07:39:51;;;;;;;3.58;2.03;;;;;;;22.19;35.06;100559.75;3576607;40;20142;-72
2021/07/30 07:42:19;;;;;;;4.90;2.10;;;;;;;22.28;35.26;100570.72;3572231;40;20472;-72
2021/07/30 07:44:51;;;;;;;3.85;2.00;;;;;;;22.39;34.56;100557.00;3571658;40;20065;-72
2021/07/30 07:47:19;;;;;;;3.33;2.15;;;;;;;22.43;34.59;100554.59;3571741;39;20037;-71
2021/07/30 07:49:47;;;;;;;3.25;1.80;;;;;;;22.52;34.58;100558.88;3574410;40;20057;-71
2021/07/30 07:52:15;;;;;;;4.22;2.03;;;;;;;22.60;34.19;100553.06;3577381;40;20041;-71
2021/07/30 07:54:59;;;;;;;6.90;1.95;;;;;;;22.66;34.31;100549.41;3578326;40;20063;-71
2021/07/30 07:57:27;;;;;;;4.72;2.05;;;;;;;22.73;34.39;100541.84;3578430;40;20037;-71
2021/07/30 07:59:56;;;;;;;3.47;1.90;;;;;;;22.82;33.73;100542.47;3577333;40;20053;-72
2021/07/30 08:02:25;;;;;;;3.60;2.00;;;;;;;22.86;34.04;100541.00;3575125;40;20561;-71
2021/07/30 08:04:53;;;;;;;4.10;1.98;;;;;;;22.94;33.74;100535.19;3576787;40;20049;-71
2021/07/30 08:07:22;;;;;;;3.90;2.25;;;;;;;23.00;33.76;100537.06;3576282;40;20045;-71
2021/07/30 08:09:56;;;;;;;4.38;1.85;;;;;;;23.11;33.54;100535.53;3579865;40;20048;-72
2021/07/30 08:12:45;;;;;;;3.05;1.75;;;;;;;23.14;34.01;100532.25;3558581;40;20126;-71
2021/07/30 08:15:18;;;;;;;4.18;2.10;;;;;;;23.25;34.37;100531.56;3578212;40;20387;-72
2021/07/30 08:17:46;;;;;;;3.95;1.92;;;;;;;23.32;34.01;100524.88;3576765;40;20048;-72
2021/07/30 08:20:15;;;;;;;3.63;1.83;;;;;;;23.44;33.93;100522.22;3576922;40;20041;-73
2021/07/30 08:22:55;;;;;;;3.83;2.00;;;;;;;23.53;34.13;100520.91;3577780;40;20065;-74
2021/07/30 08:25:25;;;;;;;2.60;1.70;;;;;;;23.61;33.95;100520.63;3575064;40;20048;-75
2021/07/30 08:27:53;;;;;;;3.35;1.80;;;;;;;23.74;33.77;100518.78;3575935;40;20081;-75
2021/07/30 08:30:26;;;;;;;3.70;2.03;;;;;;;23.88;33.45;100514.84;3574757;40;20056;-75
2021/07/30 08:33:17;;;;;;;4.75;2.22;;;;;;;23.96;33.23;100515.38;3566983;40;20073;-75
2021/07/30 08:35:45;;;;;;;2.42;1.67;;;;;;;24.07;33.21;100505.44;3576422;40;20440;-73
2021/07/30 08:38:13;;;;;;;5.07;2.13;;;;;;;24.18;32.79;100515.00;3574340;40;20037;-75
2021/07/30 08:40:42;;;;;;;3.17;2.38;;;;;;;24.27;33.02;100508.03;3576713;40;20104;-74
2021/07/30 08:43:14;;;;;;;5.68;2.20;;;;;;;24.39;32.61;100506.16;3575266;40;20130;-74
2021/07/30 08:45:48;;;;;;;;;;;;;;;24.13;33.49;100498.91;3578620;40;20084;-74
2021/07/30 08:48:17;;;;;;;3.28;1.50;;;;;;;24.49;32.60;100495.31;3578474;40;19932;-72
2021/07/30 08:50:46;;;;;;;3.75;1.80;;;;;;;24.63;32.23;100499.63;3576554;40;20049;-72
2021/07/30 08:53:26;;;;;;;3.15;2.00;;;;;;;24.75;31.59;100499.75;3572416;40;20038;-72
2021/07/30 08:55:55;;;;;;;3.65;1.80;;;;;;;24.79;31.86;100495.38;3571320;40;20057;-74
2021/07/30 08:58:23;;;;;;;6.07;1.90;;;;;;;24.89;31.97;100495.69;3576471;40;20613;-75
2021/07/30 09:00:52;;;;;;;3.45;1.83;;;;;;;24.98;31.68;100488.69;3574660;40;20106;-73
2021/07/30 09:03:20;;;;;;;3.58;1.83;;;;;;;25.03;31.10;100483.22;3572427;40;20072;-74
2021/07/30 09:05:49;;;;;;;3.70;1.67;;;;;;;25.10;31.33;100484.00;3574760;40;20061;-74
2021/07/30 09:08:24;;;;;;;3.70;1.73;;;;;;;25.21;30.68;100485.09;3574961;40;20069;-73
2021/07/30 09:10:52;;;;;;;2.58;1.65;;;;;;;25.23;31.07;100490.47;3574761;40;20315;-75
2021/07/30 09:13:24;;;;;;;3.13;1.60;;;;;;;25.31;30.44;100477.03;3577604;40;20397;-74
2021/07/30 09:16:04;;;;;;;2.80;1.63;;;;;;;25.37;30.33;100472.41;3582437;40;20044;-73
2021/07/30 09:18:35;;;;;;;4.07;1.70;;;;;;;25.40;30.26;100481.19;3572779;40;20044;-73
2021/07/30 09:21:31;;;;;;;3.50;2.00;;;;;;;25.42;29.90;100483.75;3577441;40;20863;-74
2021/07/30 09:24:00;;;;;;;3.45;1.80;;;;;;;25.44;29.49;100485.22;3559321;40;20079;-73
2021/07/30 09:26:40;;;;;;;3.60;1.80;;;;;;;25.51;29.15;100476.72;3574476;40;20070;-74
2021/07/30 09:29:11;;;;;;;3.47;1.80;;;;;;;25.45;28.84;100472.91;3575170;40;20073;-75
2021/07/30 09:31:48;;;;;;;4.78;2.10;;;;;;;25.44;28.42;100473.19;3576792;40;20401;-75
2021/07/30 09:34:25;;;;;;;3.70;2.20;;;;;;;25.41;28.45;100468.06;3576266;40;20041;-74
2021/07/30 09:36:56;;;;;;;3.85;1.77;;;;;;;25.36;28.86;100465.13;3577613;40;20045;-73
2021/07/30 09:39:26;;;;;;;3.42;1.70;;;;;;;25.35;28.98;100463.41;3572321;40;20133;-74
2021/07/30 09:42:01;;;;;;;3.15;1.90;;;;;;;25.39;28.68;100456.22;3577469;40;20041;-73
2021/07/30 09:44:30;;;;;;;3.47;1.95;;;;;;;25.37;28.73;100461.22;3571270;40;20297;-76
2021/07/30 09:47:08;;;;;;;3.70;2.20;;;;;;;25.40;28.41;100443.94;3573867;40;20060;-74
2021/07/30 09:49:43;;;;;;;3.13;2.05;;;;;;;25.39;28.57;100439.44;3578217;40;20074;-73
2021/07/30 09:52:14;;;;;;;4.50;2.38;;;;;;;25.36;28.61;100457.56;3575076;40;20063;-75
2021/07/30 09:54:45;;;;;;;3.22;2.00;;;;;;;25.36;28.71;100449.16;3577084;40;20056;-74
2021/07/30 09:57:15;;;;;;;3.03;1.88;;;;;;;25.34;28.97;100445.75;3571270;40;20061;-75
2021/07/30 09:59:44;;;;;;;4.28;1.80;;;;;;;25.36;28.91;100442.72;3576513;40;20065;-74
2021/07/30 10:02:16;;;;;;;3.35;2.03;;;;;;;25.40;28.56;100432.75;3572807;39;20629;-72
2021/07/30 10:04:50;;;;;;;3.30;1.70;;;;;;;25.43;28.51;100437.88;3575064;40;20053;-72
2021/07/30 10:07:21;;;;;;;3.33;1.90;;;;;;;25.47;28.80;100437.13;3575282;40;20041;-72
2021/07/30 10:09:55;;;;;;;3.28;2.13;;;;;;;25.53;28.53;100429.72;3574799;40;20049;-72
2021/07/30 10:12:25;;;;;;;3.35;2.15;;;;;;;25.55;28.59;100419.97;3571625;40;20050;-72
2021/07/30 10:14:54;;;;;;;4.60;2.10;;;;;;;25.61;28.22;100423.75;3576125;40;20060;-72
2021/07/30 10:17:29;;;;;;;3.88;2.00;;;;;;;25.71;28.02;100404.41;3571174;39;20056;-72
2021/07/30 10:19:59;;;;;;;3.13;1.92;;;;;;;25.73;28.46;100409.75;3576499;40;20055;-73
2021/07/30 10:22:35;;;;;;;3.50;2.30;;;;;;;25.80;27.87;100405.75;3573394;40;20062;-72
2021/07/30 10:25:06;;;;;;;3.28;2.10;;;;;;;25.86;28.16;100399.19;3567535;40;20101;-73
2021/07/30 10:27:39;;;;;;;3.50;2.20;;;;;;;25.91;28.02;100402.13;3578240;40;20077;-72
2021/07/30 10:30:10;;;;;;;3.72;2.00;;;;;;;26.00;27.97;100399.81;3583165;40;20056;-72
2021/07/30 10:32:58;;;;;;;3.28;2.10;;;;;;;26.10;27.63;100405.63;3572893;40;20397;-71
2021/07/30 10:35:44;;;;;;;3.53;2.13;;;;;;;26.17;27.79;100399.91;3574722;40;20092;-74
2021/07/30 10:38:17;;;;;;;4.05;2.25;;;;;;;26.26;27.81;100398.41;3578234;40;20037;-72
2021/07/30 10:41:07;;;;;;;3.20;2.00;;;;;;;26.34;27.58;100381.22;3575421;40;20061;-71
2021/07/30 10:44:08;;;;;;;3.00;1.98;;;;;;;26.35;27.36;100382.88;3572284;40;20080;-72
2021/07/30 10:46:36;;;;;;;3.85;2.00;;;;;;;26.46;26.96;100378.38;3572788;40;20422;-74
2021/07/30 10:49:38;;;;;;;3.38;2.10;;;;;;;26.45;26.88;100371.91;3572580;40;20045;-73
2021/07/30 10:52:26;;;;;;;4.78;2.40;;;;;;;26.50;27.28;100374.00;3564142;40;20053;-73
2021/07/30 10:54:54;;;;;;;3.50;2.20;;;;;;;26.51;27.10;100378.50;3576120;40;20114;-72
2021/07/30 10:57:48;;;;;;;3.00;1.98;;;;;;;26.51;26.99;100376.56;3572408;40;20053;-73
2021/07/30 11:00:18;;;;;;;3.42;2.10;;;;;;;26.51;26.91;100370.09;3572792;40;20041;-73
2021/07/30 11:03:06;;;;;;;3.20;2.10;;;;;;;26.50;26.88;100365.59;3575481;40;20283;-73
2021/07/30 11:05:55;;;;;;;3.35;2.15;;;;;;;26.47;27.25;100364.13;3575579;40;20080;-73
2021/07/30 11:08:23;;;;;;;3.75;2.03;;;;;;;26.48;27.19;100364.97;3572933;40;20095;-72
2021/07/30 11:10:51;;;;;;;3.03;2.00;;;;;;;26.50;26.44;100365.59;3576439;40;20048;-72
2021/07/30 11:13:19;;;;;;;2.95;1.95;;;;;;;26.54;26.64;100366.78;3574187;40;20041;-74
2021/07/30 11:15:52;;;;;;;;;;;;;;;26.24;27.62;100364.16;3577681;40;20294;-74
2021/07/30 11:18:20;;;;;;;2.78;1.80;;;;;;;26.52;26.68;100367.00;3574562;40;20328;-74
2021/07/30 11:20:57;;;;;;;3.22;1.92;;;;;;;26.61;26.13;100362.72;3575989;40;20061;-73
2021/07/30 11:23:27;;;;;;;3.10;2.10;;;;;;;26.60;26.55;100368.56;3574320;40;20135;-73
2021/07/30 11:26:06;;;;;;;3.85;2.20;;;;;;;26.65;26.16;100366.75;3572524;40;20057;-72
2021/07/30 11:28:35;;;;;;;3.65;2.15;;;;;;;26.66;26.37;100359.19;3560275;40;20040;-73
2021/07/30 11:31:04;;;;;;;4.28;2.30;;;;;;;26.69;26.22;100353.91;3572586;40;20059;-73
2021/07/30 11:33:34;;;;;;;2.90;1.98;;;;;;;26.71;26.17;100353.66;3575871;40;20130;-73
2021/07/30 11:36:10;;;;;;;3.60;2.00;;;;;;;26.72;25.92;100362.91;3576972;40;20400;-73
2021/07/30 11:39:13;;;;;;;3.67;2.00;;;;;;;26.67;25.90;100347.69;3576599;40;20119;-73
2021/07/30 11:45:52;;;;;;;3.33;1.80;;;;;;;26.61;26.52;100354.28;3560226;40;20055;-75
2021/07/30 11:48:21;;;;;;;3.22;2.03;;;;;;;26.66;26.24;100343.19;3580633;40;20452;-74